Time;durP1;ratioP1;P1;durP2;ratioP2;P2;SDS_P1;SDS_P2;PMS_P1;PMS_P2;Temp;Humidity;BMP_temperature;BMP_pressure;BME280_temperature;BME280_humidity;BME280_pressure;Samples;Min_cycle;Max_cycle;Signal;HPM_P1;HPM_P2
2023/03/22 00:01:26;;;;;;;9.00;3.17;;;;;;;9.95;100.00;100906.22;5314768;28;20369;-74
2023/03/22 00:03:57;;;;;;;10.67;3.40;;;;;;;9.91;100.00;100895.88;5315336;28;20027;-74
2023/03/22 00:06:29;;;;;;;8.33;2.77;;;;;;;9.83;100.00;100887.63;5314766;28;20020;-74
2023/03/22 00:09:00;;;;;;;9.10;2.83;;;;;;;9.74;100.00;100882.94;5315764;28;20138;-74
2023/03/22 00:11:31;;;;;;;13.87;4.07;;;;;;;9.70;100.00;100886.66;5316045;28;20145;-73
2023/03/22 00:14:03;;;;;;;8.77;3.40;;;;;;;9.73;100.00;100886.47;5314206;28;20075;-74
2023/03/22 00:16:34;;;;;;;14.37;3.60;;;;;;;9.66;100.00;100885.97;5315490;28;20031;-74
2023/03/22 00:19:05;;;;;;;9.70;3.23;;;;;;;9.63;100.00;100876.53;5315242;28;20547;-74
2023/03/22 00:21:37;;;;;;;12.00;4.33;;;;;;;9.56;100.00;100872.56;5314442;28;20023;-73
2023/03/22 00:24:08;;;;;;;7.00;2.93;;;;;;;9.73;100.00;100870.78;5315551;28;20032;-74
2023/03/22 00:26:39;;;;;;;6.30;3.33;;;;;;;9.47;100.00;100860.00;5301228;28;20768;-74
2023/03/22 00:29:11;;;;;;;9.30;3.60;;;;;;;9.71;100.00;100867.41;5315828;28;20031;-74
2023/03/22 00:31:42;;;;;;;10.77;3.97;;;;;;;9.53;100.00;100854.44;5320949;28;20050;-73
2023/03/22 00:34:13;;;;;;;8.30;2.93;;;;;;;9.50;100.00;100854.59;5320562;28;20057;-73
2023/03/22 00:36:44;;;;;;;9.87;4.30;;;;;;;9.51;100.00;100843.22;5320721;28;20458;-74
2023/03/22 00:39:16;;;;;;;8.43;3.50;;;;;;;9.48;100.00;100856.47;5321380;28;20704;-74
2023/03/22 00:41:47;;;;;;;11.37;3.63;;;;;;;9.33;100.00;100851.16;5308681;28;20394;-73
2023/03/22 00:44:18;;;;;;;12.57;3.53;;;;;;;9.45;100.00;100847.00;5300423;28;20085;-74
2023/03/22 00:46:50;;;;;;;10.50;3.43;;;;;;;9.45;100.00;100841.78;5300244;28;20051;-74
2023/03/22 00:49:21;;;;;;;11.73;4.17;;;;;;;9.51;100.00;100840.59;5307371;28;20027;-73
2023/03/22 00:51:53;;;;;;;10.60;3.70;;;;;;;9.52;100.00;100839.66;5319286;28;20035;-73
2023/03/22 00:54:24;;;;;;;9.80;3.80;;;;;;;9.34;100.00;100829.28;5314030;28;20076;-73
2023/03/22 00:56:56;;;;;;;16.60;4.43;;;;;;;9.44;100.00;100825.25;5313985;28;20040;-74
2023/03/22 00:59:27;;;;;;;10.30;4.63;;;;;;;9.54;100.00;100819.50;5314519;28;20456;-74
2023/03/22 01:01:58;;;;;;;16.37;5.77;;;;;;;9.56;100.00;100822.91;5304024;28;20032;-74
2023/03/22 01:04:30;;;;;;;9.77;5.20;;;;;;;9.54;100.00;100817.75;5319778;28;20024;-74
2023/03/22 01:07:06;;;;;;;11.07;5.80;;;;;;;9.59;100.00;100817.47;5312529;28;20020;-74
2023/03/22 01:09:37;;;;;;;12.57;6.37;;;;;;;9.52;100.00;100805.69;5299377;28;20048;-74
2023/03/22 01:12:11;;;;;;;9.57;5.40;;;;;;;9.59;100.00;100809.63;5298330;28;20039;-74
2023/03/22 01:14:43;;;;;;;14.30;6.60;;;;;;;9.52;100.00;100803.06;5299604;28;20028;-74
2023/03/22 01:17:14;;;;;;;10.97;7.40;;;;;;;9.52;100.00;100803.91;5299380;28;20035;-74
2023/03/22 01:19:46;;;;;;;9.50;6.90;;;;;;;9.51;100.00;100798.78;5311113;28;20032;-73
2023/03/22 01:22:17;;;;;;;9.53;7.17;;;;;;;9.57;100.00;100798.41;5314461;28;20149;-73
2023/03/22 01:24:49;;;;;;;13.70;6.97;;;;;;;9.56;100.00;100781.06;5299801;28;20560;-74
2023/03/22 01:27:20;;;;;;;12.80;7.43;;;;;;;9.50;100.00;100776.16;5299008;28;20432;-74
2023/03/22 01:29:51;;;;;;;11.40;7.77;;;;;;;9.53;100.00;100762.94;5299586;28;20463;-75
2023/03/22 01:32:23;;;;;;;11.73;7.37;;;;;;;9.49;100.00;100764.88;5297614;28;20070;-74
2023/03/22 01:34:54;;;;;;;9.60;7.07;;;;;;;9.47;100.00;100755.44;5297798;28;20032;-74
2023/03/22 01:37:26;;;;;;;11.47;8.87;;;;;;;9.51;100.00;100756.94;5298909;28;20039;-74
2023/03/22 01:39:58;;;;;;;13.87;8.27;;;;;;;9.50;100.00;100750.88;5296177;28;20036;-74
2023/03/22 01:42:29;;;;;;;12.20;8.40;;;;;;;9.46;100.00;100732.84;5298962;28;20052;-74
2023/03/22 01:45:33;;;;;;;13.93;8.47;;;;;;;9.63;100.00;100742.31;5298385;28;20028;-74
2023/03/22 01:48:14;;;;;;;14.17;7.90;;;;;;;9.52;100.00;100738.56;5281053;28;20047;-74
2023/03/22 01:50:57;;;;;;;13.07;8.50;;;;;;;9.55;100.00;100733.16;5296204;28;20028;-73
2023/03/22 01:53:33;;;;;;;11.40;8.57;;;;;;;9.54;100.00;100722.78;5298746;28;20086;-73
2023/03/22 01:56:05;;;;;;;12.23;8.63;;;;;;;9.59;100.00;100722.50;5298428;28;20035;-73
2023/03/22 01:58:37;;;;;;;11.13;8.47;;;;;;;9.60;100.00;100713.75;5297000;28;20454;-74
2023/03/22 02:01:10;;;;;;;15.30;9.13;;;;;;;9.55;100.00;100721.84;5298082;28;20169;-74
2023/03/22 02:03:51;;;;;;;13.77;9.80;;;;;;;9.58;100.00;100715.59;5297731;28;20024;-74
2023/03/22 02:06:23;;;;;;;14.87;9.50;;;;;;;9.60;100.00;100704.09;5298097;28;20063;-73
2023/03/22 02:08:57;;;;;;;12.23;9.33;;;;;;;9.59;100.00;100712.03;5298152;28;20048;-74
2023/03/22 02:11:34;;;;;;;15.73;10.00;;;;;;;9.47;100.00;100682.22;5269821;22;20049;-75
2023/03/22 02:14:17;;;;;;;16.50;9.90;;;;;;;9.59;100.00;100702.44;5235586;28;20018;-73
2023/03/22 02:17:14;;;;;;;11.50;9.07;;;;;;;9.60;100.00;100693.66;5235398;28;20413;-74
2023/03/22 02:20:23;;;;;;;12.67;9.47;;;;;;;9.67;100.00;100689.75;5234737;28;20067;-75
2023/03/22 02:23:13;;;;;;;13.30;9.63;;;;;;;9.69;100.00;100694.88;5235586;28;20043;-76
2023/03/22 02:26:05;;;;;;;13.03;9.43;;;;;;;9.66;100.00;100690.69;5235512;28;20029;-75
2023/03/22 02:28:36;;;;;;;11.83;9.20;;;;;;;9.63;100.00;100692.66;5235083;28;20025;-75
2023/03/22 02:31:28;;;;;;;10.77;8.53;;;;;;;9.62;100.00;100683.94;5233490;28;20512;-76
2023/03/22 02:34:18;;;;;;;11.13;8.50;;;;;;;9.68;100.00;100681.00;5234106;28;20025;-76
2023/03/22 02:37:19;;;;;;;12.20;8.77;;;;;;;9.68;100.00;100674.91;5235008;28;20025;-74
2023/03/22 02:40:05;;;;;;;11.53;8.13;;;;;;;9.61;100.00;100679.66;5214680;28;20031;-74
2023/03/22 02:42:47;;;;;;;10.50;8.00;;;;;;;9.65;100.00;100680.31;5217552;28;20026;-74
2023/03/22 02:45:31;;;;;;;13.00;8.37;;;;;;;9.65;100.00;100675.09;5234434;28;20036;-74
2023/03/22 02:48:02;;;;;;;10.13;7.63;;;;;;;9.70;100.00;100680.03;5234931;28;20033;-74
2023/03/22 02:50:51;;;;;;;10.90;8.10;;;;;;;9.71;100.00;100679.09;5233558;28;20028;-74
2023/03/22 02:53:39;;;;;;;11.73;8.23;;;;;;;9.67;100.00;100674.06;5232731;28;20669;-74
2023/03/22 02:56:21;;;;;;;10.37;7.40;;;;;;;9.68;100.00;100669.69;5234642;28;20091;-74
2023/03/22 02:58:58;;;;;;;11.03;7.60;;;;;;;9.60;100.00;100657.03;5234552;28;20028;-74
2023/03/22 03:01:35;;;;;;;11.90;6.73;;;;;;;9.66;100.00;100655.84;5234604;28;20033;-74
2023/03/22 03:04:13;;;;;;;11.83;7.50;;;;;;;9.63;100.00;100656.88;5233794;28;20026;-74
2023/03/22 03:06:47;;;;;;;10.70;7.37;;;;;;;9.66;100.00;100656.69;5234573;28;20100;-75
2023/03/22 03:09:20;;;;;;;10.43;8.20;;;;;;;9.58;100.00;100648.47;5234419;28;20032;-73
2023/03/22 03:11:53;;;;;;;9.10;6.07;;;;;;;9.60;100.00;100645.75;5234370;28;20049;-74
2023/03/22 03:14:31;;;;;;;7.83;6.27;;;;;;;9.56;100.00;100645.09;5232791;28;20241;-75
2023/03/22 03:17:10;;;;;;;9.10;6.03;;;;;;;9.63;100.00;100649.03;5234057;28;20025;-75
2023/03/22 03:20:11;;;;;;;13.10;6.03;;;;;;;9.61;100.00;100648.28;5232195;28;20025;-75
2023/03/22 03:23:12;;;;;;;8.73;5.40;;;;;;;9.67;100.00;100645.28;5234412;28;20037;-75
2023/03/22 03:26:02;;;;;;;9.53;5.97;;;;;;;9.57;100.00;100636.31;5234396;28;20099;-75
2023/03/22 03:29:10;;;;;;;8.63;5.90;;;;;;;9.70;100.00;100648.66;5234183;28;20025;-74
2023/03/22 03:32:02;;;;;;;7.87;5.37;;;;;;;9.51;100.00;100629.66;5233204;28;20091;-74
2023/03/22 03:34:48;;;;;;;8.07;5.33;;;;;;;9.58;100.00;100640.63;5233176;28;20041;-74
2023/03/22 03:37:25;;;;;;;9.60;5.80;;;;;;;9.53;100.00;100629.59;5233833;28;20025;-74
2023/03/22 03:40:08;;;;;;;13.97;5.67;;;;;;;9.65;100.00;100636.69;5224756;28;20026;-74
2023/03/22 03:42:46;;;;;;;8.97;5.57;;;;;;;9.58;100.00;100637.16;5233860;28;20030;-73
2023/03/22 03:45:18;;;;;;;7.77;4.87;;;;;;;9.61;100.00;100635.22;5231685;28;20064;-74
2023/03/22 03:47:55;;;;;;;11.57;4.53;;;;;;;9.51;100.00;100629.66;5234274;28;20113;-75
2023/03/22 03:50:28;;;;;;;11.23;6.03;;;;;;;9.51;100.00;100642.72;5231845;28;20048;-74
2023/03/22 03:53:00;;;;;;;9.40;4.83;;;;;;;9.58;100.00;100645.00;5231963;28;20048;-75
2023/03/22 03:55:32;;;;;;;9.10;4.27;;;;;;;9.58;100.00;100648.47;5232690;28;20071;-74
2023/03/22 03:58:03;;;;;;;9.00;4.77;;;;;;;9.43;100.00;100622.28;5233367;28;20418;-74
2023/03/22 04:00:38;;;;;;;7.43;5.13;;;;;;;9.53;100.00;100642.69;5231822;28;20039;-75
2023/03/22 04:03:09;;;;;;;;;;;;;;;9.65;100.00;100649.75;5233498;28;20524;-74
2023/03/22 04:05:41;;;;;;;8.33;3.83;;;;;;;9.46;100.00;100639.56;5232805;28;19913;-75
2023/03/22 04:08:12;;;;;;;9.97;4.30;;;;;;;9.47;100.00;100640.41;5233054;28;20165;-75
2023/03/22 04:10:49;;;;;;;7.70;4.23;;;;;;;9.51;100.00;100645.34;5227911;28;20050;-75
2023/03/22 04:13:20;;;;;;;10.33;4.23;;;;;;;9.42;100.00;100649.38;5220788;28;20119;-75
2023/03/22 04:15:53;;;;;;;7.47;3.60;;;;;;;9.39;100.00;100644.28;5233677;28;20128;-75
2023/03/22 04:18:28;;;;;;;11.20;4.50;;;;;;;9.32;100.00;100637.75;5232518;28;20060;-75
2023/03/22 04:20:59;;;;;;;9.43;4.47;;;;;;;9.34;100.00;100633.28;5231239;28;20029;-75
2023/03/22 04:23:32;;;;;;;12.30;4.60;;;;;;;9.31;100.00;100636.06;5233337;28;20040;-74
2023/03/22 04:26:04;;;;;;;8.83;4.53;;;;;;;9.28;100.00;100631.03;5216733;28;20026;-75
2023/03/22 04:28:36;;;;;;;8.60;3.87;;;;;;;9.28;100.00;100617.97;5216254;28;20083;-74
2023/03/22 04:31:07;;;;;;;8.97;4.63;;;;;;;9.27;100.00;100611.88;5233513;28;20026;-74
2023/03/22 04:33:39;;;;;;;9.40;4.03;;;;;;;9.24;100.00;100617.28;5232594;28;20552;-74
2023/03/22 04:36:14;;;;;;;8.93;3.83;;;;;;;9.28;100.00;100620.56;5233491;28;20036;-74
2023/03/22 04:38:46;;;;;;;13.80;4.57;;;;;;;9.30;100.00;100622.16;5247973;28;20013;-74
2023/03/22 04:41:18;;;;;;;10.73;4.40;;;;;;;9.28;100.00;100615.34;5224997;28;20018;-74
2023/03/22 04:43:49;;;;;;;13.53;5.00;;;;;;;9.23;100.00;100618.25;5211462;28;20076;-74
2023/03/22 04:46:21;;;;;;;9.67;4.73;;;;;;;9.25;100.00;100618.16;5212679;28;20114;-74
2023/03/22 04:48:52;;;;;;;10.83;4.77;;;;;;;9.15;100.00;100615.19;5211879;28;20053;-74
2023/03/22 04:51:24;;;;;;;10.93;3.77;;;;;;;9.19;100.00;100617.56;5211969;28;20391;-74
2023/03/22 04:53:55;;;;;;;9.90;3.93;;;;;;;9.14;100.00;100600.47;5213097;28;20025;-74
2023/03/22 04:56:26;;;;;;;11.37;4.27;;;;;;;9.22;100.00;100618.28;5212042;28;20030;-74
2023/03/22 04:58:58;;;;;;;11.57;4.57;;;;;;;9.16;100.00;100615.09;5211826;28;20493;-74
2023/03/22 05:01:29;;;;;;;10.27;4.67;;;;;;;9.19;100.00;100611.50;5224138;28;20030;-74
2023/03/22 05:04:01;;;;;;;13.30;4.20;;;;;;;9.21;100.00;100620.09;5231976;28;20551;-74
2023/03/22 05:06:33;;;;;;;12.70;4.50;;;;;;;9.22;100.00;100611.31;5232862;28;20048;-74
2023/03/22 05:09:04;;;;;;;7.93;3.73;;;;;;;9.18;100.00;100610.63;5232934;28;20389;-74
2023/03/22 05:11:36;;;;;;;14.10;3.63;;;;;;;9.14;100.00;100598.69;5232472;28;20053;-74
2023/03/22 05:14:08;;;;;;;13.57;4.27;;;;;;;9.24;100.00;100608.59;5232667;28;20453;-75
2023/03/22 05:16:39;;;;;;;9.80;4.13;;;;;;;9.10;100.00;100591.09;5219271;28;20024;-75
2023/03/22 05:19:12;;;;;;;8.13;3.80;;;;;;;9.21;100.00;100609.63;5226562;28;20014;-75
2023/03/22 05:21:44;;;;;;;9.63;3.57;;;;;;;9.18;100.00;100599.38;5219405;28;20022;-75
2023/03/22 05:24:15;;;;;;;7.87;3.80;;;;;;;9.19;100.00;100607.13;5219172;28;20036;-75
2023/03/22 05:26:52;;;;;;;15.47;3.67;;;;;;;9.17;100.00;100598.53;5236616;28;20033;-75
2023/03/22 05:29:23;;;;;;;9.63;3.80;;;;;;;9.21;100.00;100607.03;5236166;28;20021;-75
2023/03/22 05:31:55;;;;;;;11.37;4.70;;;;;;;9.22;100.00;100602.63;5234678;28;20091;-75
2023/03/22 05:34:34;;;;;;;11.87;3.67;;;;;;;9.10;100.00;100594.56;5228165;28;20025;-75
2023/03/22 05:37:05;;;;;;;8.00;3.10;;;;;;;9.06;100.00;100596.53;5215861;28;20077;-74
2023/03/22 05:39:36;;;;;;;9.63;3.63;;;;;;;9.20;100.00;100608.78;5231181;28;20025;-75
2023/03/22 05:42:08;;;;;;;8.93;3.37;;;;;;;9.08;100.00;100579.00;5236117;28;20382;-74
2023/03/22 05:44:39;;;;;;;9.30;3.20;;;;;;;9.27;100.00;100597.97;5236364;28;20029;-74
2023/03/22 05:47:10;;;;;;;5.70;3.43;;;;;;;9.23;100.00;100604.31;5235833;28;20025;-75
2023/03/22 05:49:41;;;;;;;8.10;2.87;;;;;;;9.22;100.00;100600.84;5235529;28;20031;-75
2023/03/22 05:52:13;;;;;;;11.50;4.60;;;;;;;9.23;100.00;100614.78;5216125;28;20026;-75
2023/03/22 05:54:44;;;;;;;12.47;3.60;;;;;;;9.21;100.00;100599.19;5215868;28;20030;-74
2023/03/22 05:57:16;;;;;;;6.90;2.90;;;;;;;9.20;100.00;100598.34;5215836;28;20573;-74
2023/03/22 05:59:47;;;;;;;8.80;2.83;;;;;;;9.19;100.00;100601.88;5214467;28;20046;-75
2023/03/22 06:02:20;;;;;;;7.40;2.93;;;;;;;9.26;100.00;100611.97;5215775;28;20038;-75
2023/03/22 06:04:51;;;;;;;10.83;3.03;;;;;;;9.18;100.00;100599.38;5214444;28;20029;-75
2023/03/22 06:07:22;;;;;;;12.77;3.07;;;;;;;9.18;100.00;100594.97;5215086;28;20029;-75
2023/03/22 06:09:54;;;;;;;7.70;2.50;;;;;;;9.30;100.00;100605.66;5227846;28;20040;-75
2023/03/22 06:12:25;;;;;;;8.87;2.70;;;;;;;9.29;100.00;100596.09;5235088;28;20033;-75
2023/03/22 06:14:57;;;;;;;9.97;4.23;;;;;;;9.29;100.00;100603.94;5233491;28;20055;-75
2023/03/22 06:17:28;;;;;;;10.57;3.27;;;;;;;9.28;100.00;100599.66;5235609;28;20546;-73
2023/03/22 06:19:59;;;;;;;9.77;3.70;;;;;;;9.30;100.00;100592.59;5233895;28;20026;-75
2023/03/22 06:22:32;;;;;;;10.50;3.57;;;;;;;9.35;100.00;100601.00;5235611;28;20025;-74
2023/03/22 06:25:04;;;;;;;12.53;3.13;;;;;;;9.36;100.00;100605.28;5233133;28;20026;-76
2023/03/22 06:27:36;;;;;;;8.43;3.03;;;;;;;9.36;100.00;100605.28;5235760;28;20060;-75
2023/03/22 06:30:08;;;;;;;10.70;2.93;;;;;;;9.35;100.00;100593.16;5234465;28;20033;-75
2023/03/22 06:32:39;;;;;;;8.23;3.43;;;;;;;9.42;100.00;100604.94;5250133;28;20116;-75
2023/03/22 06:35:10;;;;;;;10.37;3.27;;;;;;;9.46;100.00;100596.91;5233038;28;20116;-75
2023/03/22 06:37:42;;;;;;;10.20;3.60;;;;;;;9.55;100.00;100601.56;5235176;28;20033;-75
2023/03/22 06:40:14;;;;;;;14.90;3.63;;;;;;;9.51;100.00;100602.69;5235164;28;20026;-75
2023/03/22 06:42:45;;;;;;;11.60;4.20;;;;;;;9.60;100.00;100607.38;5235837;28;20030;-73
2023/03/22 06:45:17;;;;;;;11.17;3.37;;;;;;;9.51;100.00;100602.69;5235298;28;20029;-74
2023/03/22 06:47:49;;;;;;;12.43;3.50;;;;;;;9.54;100.00;100616.44;5235210;28;20029;-74
2023/03/22 06:50:21;;;;;;;8.83;3.30;;;;;;;9.57;100.00;100615.41;5233686;28;20048;-74
2023/03/22 06:52:52;;;;;;;11.70;3.87;;;;;;;9.57;100.00;100612.78;5235012;28;20049;-75
2023/03/22 06:55:23;;;;;;;10.07;4.23;;;;;;;9.55;100.00;100602.41;5234534;28;20053;-75
2023/03/22 06:57:55;;;;;;;10.33;3.73;;;;;;;9.61;100.00;100590.75;5232993;28;20082;-75
2023/03/22 07:00:27;;;;;;;12.00;3.73;;;;;;;9.75;100.00;100600.41;5234500;28;20022;-75
2023/03/22 07:02:59;;;;;;;8.60;3.57;;;;;;;9.89;100.00;100604.78;5232245;28;20541;-76
2023/03/22 07:05:31;;;;;;;13.10;4.13;;;;;;;9.95;100.00;100608.78;5234881;28;20040;-75
2023/03/22 07:08:02;;;;;;;12.17;3.57;;;;;;;9.98;100.00;100599.91;5232372;28;20552;-75
2023/03/22 07:10:34;;;;;;;7.60;3.63;;;;;;;10.07;100.00;100601.94;5234051;28;20072;-74
2023/03/22 07:13:05;;;;;;;8.70;3.73;;;;;;;9.93;100.00;100595.81;5236038;28;20060;-74
2023/03/22 07:15:36;;;;;;;11.17;3.80;;;;;;;9.96;100.00;100604.41;5236334;28;20044;-74
2023/03/22 07:18:08;;;;;;;10.07;4.10;;;;;;;9.95;100.00;100603.56;5235457;28;20017;-74
2023/03/22 07:20:40;;;;;;;13.33;3.70;;;;;;;10.01;100.00;100603.19;5235699;28;20025;-76
2023/03/22 07:23:11;;;;;;;7.80;3.63;;;;;;;10.04;100.00;100592.53;5230351;28;20029;-76
2023/03/22 07:25:44;;;;;;;12.87;4.07;;;;;;;10.13;100.00;100606.81;5232951;28;20358;-76
2023/03/22 07:28:16;;;;;;;11.43;3.70;;;;;;;10.04;100.00;100596.91;5219282;28;20048;-76
2023/03/22 07:30:50;;;;;;;9.57;3.87;;;;;;;10.10;100.00;100606.16;5218506;28;20030;-75
2023/03/22 07:33:21;;;;;;;9.50;4.55;;;;;;;10.18;100.00;100619.63;5232417;28;20033;-76
2023/03/22 07:35:53;;;;;;;13.90;4.90;;;;;;;10.15;100.00;100609.34;5214255;28;20030;-75
2023/03/22 07:38:24;;;;;;;10.10;4.20;;;;;;;10.29;100.00;100618.97;5220551;28;20697;-76
2023/03/22 07:40:55;;;;;;;11.63;4.37;;;;;;;10.24;100.00;100608.78;5233010;28;20021;-75
2023/03/22 07:43:27;;;;;;;11.67;4.20;;;;;;;10.40;100.00;100607.81;5232505;28;20033;-75
2023/03/22 07:45:58;;;;;;;9.57;3.90;;;;;;;10.29;100.00;100608.50;5228029;28;20053;-76
2023/03/22 07:48:30;;;;;;;11.53;4.40;;;;;;;10.41;100.00;100615.56;5232921;28;20025;-75
2023/03/22 07:51:01;;;;;;;12.67;4.50;;;;;;;10.49;100.00;100616.91;5232668;28;20053;-76
2023/03/22 07:53:33;;;;;;;13.23;3.93;;;;;;;10.59;100.00;100617.16;5233198;28;20029;-77
2023/03/22 07:56:05;;;;;;;8.33;3.93;;;;;;;10.58;100.00;100604.97;5233839;28;20136;-76
2023/03/22 07:58:37;;;;;;;10.57;3.07;;;;;;;10.64;100.00;100610.69;5233312;28;20017;-75
2023/03/22 08:01:09;;;;;;;10.37;3.00;;;;;;;10.78;100.00;100624.69;5221020;28;20381;-75
2023/03/22 08:03:41;;;;;;;11.13;3.50;;;;;;;10.76;100.00;100609.06;5211042;28;20033;-76
2023/03/22 08:06:12;;;;;;;12.80;3.20;;;;;;;10.75;100.00;100614.41;5229625;28;20366;-77
2023/03/22 08:08:44;;;;;;;11.17;3.17;;;;;;;10.84;100.00;100624.25;5232085;28;20419;-76
2023/03/22 08:11:15;;;;;;;11.97;3.10;;;;;;;10.87;100.00;100621.44;5232571;28;20364;-76
2023/03/22 08:13:46;;;;;;;8.37;2.67;;;;;;;11.04;100.00;100632.63;5232438;28;20473;-76
2023/03/22 08:16:18;;;;;;;12.57;3.20;;;;;;;10.91;100.00;100616.03;5232115;28;20021;-77
2023/03/22 08:18:49;;;;;;;11.27;2.83;;;;;;;10.92;100.00;100617.69;5231962;28;20021;-76
2023/03/22 08:21:20;;;;;;;10.47;2.90;;;;;;;10.97;100.00;100610.38;5232679;28;20055;-76
2023/03/22 08:23:52;;;;;;;11.93;2.70;;;;;;;11.22;100.00;100614.00;5233151;28;20026;-76
2023/03/22 08:26:23;;;;;;;8.07;2.53;;;;;;;11.70;100.00;100613.41;5232837;28;20068;-75
2023/03/22 08:28:55;;;;;;;11.13;3.07;;;;;;;11.80;100.00;100604.94;5231009;28;20029;-75
2023/03/22 08:31:27;;;;;;;10.77;3.00;;;;;;;12.12;100.00;100601.00;5231799;28;20029;-75
2023/03/22 08:33:58;;;;;;;15.77;3.40;;;;;;;12.26;100.00;100598.25;5235026;28;20036;-75
2023/03/22 08:36:29;;;;;;;10.10;2.80;;;;;;;12.28;100.00;100619.16;5235488;28;20064;-75
2023/03/22 08:39:01;;;;;;;12.97;2.57;;;;;;;12.21;100.00;100595.13;5232215;28;20036;-75
2023/03/22 08:41:33;;;;;;;17.60;3.33;;;;;;;12.04;100.00;100586.63;5231795;28;20033;-75
2023/03/22 08:44:05;;;;;;;11.93;2.73;;;;;;;12.22;100.00;100583.66;5209915;28;20045;-75
2023/03/22 08:46:36;;;;;;;9.90;2.60;;;;;;;12.08;100.00;100595.94;5209788;28;20362;-76
2023/03/22 08:49:09;;;;;;;8.80;2.97;;;;;;;12.18;100.00;100595.34;5209873;28;20129;-75
2023/03/22 08:51:40;;;;;;;12.53;2.63;;;;;;;12.19;100.00;100589.97;5225521;28;20025;-75
2023/03/22 08:54:12;;;;;;;11.90;2.30;;;;;;;12.21;100.00;100584.63;5234000;28;20025;-73
2023/03/22 08:56:43;;;;;;;9.10;2.73;;;;;;;12.35;100.00;100604.63;5235858;28;20053;-74
2023/03/22 08:59:15;;;;;;;11.30;2.93;;;;;;;12.29;100.00;100595.41;5236146;28;20039;-75
2023/03/22 09:01:46;;;;;;;8.43;2.63;;;;;;;12.20;100.00;100594.28;5250827;28;20030;-76
2023/03/22 09:04:21;;;;;;;8.30;2.50;;;;;;;12.25;100.00;100593.13;5234535;28;20087;-76
2023/03/22 09:06:52;;;;;;;8.77;2.88;;;;;;;12.21;100.00;100585.47;5230211;28;20135;-74
2023/03/22 09:09:23;;;;;;;8.47;2.10;;;;;;;12.21;100.00;100595.13;5234961;28;20124;-75
2023/03/22 09:11:55;;;;;;;9.13;2.40;;;;;;;12.26;100.00;100593.00;5233964;28;20041;-75
2023/03/22 09:14:26;;;;;;;10.77;2.80;;;;;;;12.35;100.00;100583.63;5236183;28;20828;-76
2023/03/22 09:17:21;;;;;;;;;;;;;;;;;;;;;
2023/03/22 09:19:53;;;;;;;10.53;3.63;;;;;;;12.43;100.00;100562.06;5224903;28;20096;-76
2023/03/22 09:22:25;;;;;;;8.13;2.00;;;;;;;12.45;100.00;100553.13;5234237;28;20029;-76
2023/03/22 09:24:57;;;;;;;4.67;1.90;;;;;;;12.54;100.00;100532.38;5234009;28;20037;-75
2023/03/22 09:27:29;;;;;;;12.93;2.10;;;;;;;12.51;100.00;100533.47;5232424;28;20102;-76
2023/03/22 09:30:00;;;;;;;9.07;3.40;;;;;;;12.70;100.00;100572.38;5234210;28;20030;-74
2023/03/22 09:32:32;;;;;;;9.40;2.87;;;;;;;12.64;100.00;100579.81;5228809;28;20041;-74
2023/03/22 09:35:03;;;;;;;8.60;3.07;;;;;;;12.68;100.00;100582.13;5233822;28;20029;-74
2023/03/22 09:37:35;;;;;;;8.40;1.97;;;;;;;12.66;100.00;100565.66;5232747;28;20404;-74
2023/03/22 09:40:06;;;;;;;12.73;2.80;;;;;;;12.67;100.00;100569.94;5233119;28;20481;-75
2023/03/22 09:42:51;;;;;;;7.87;2.23;;;;;;;12.63;100.00;100584.25;5234104;28;20079;-76
2023/03/22 09:45:36;;;;;;;8.35;2.35;;;;;;;12.49;100.00;100558.16;5227690;28;20532;-76
2023/03/22 09:48:20;;;;;;;7.30;1.97;;;;;;;12.63;100.00;100584.25;5227405;28;20562;-73
2023/03/22 09:50:53;;;;;;;7.38;1.98;;;;;;;12.37;100.00;100573.00;5233566;28;20051;-74
2023/03/22 09:53:27;;;;;;;15.37;2.57;;;;;;;12.37;100.00;100584.38;5232962;28;20045;-76
2023/03/22 09:56:07;;;;;;;8.77;2.20;;;;;;;12.45;100.00;100571.50;5234144;28;20056;-75
2023/03/22 09:58:47;;;;;;;9.80;2.53;;;;;;;12.32;100.00;100570.72;5233503;28;20037;-75
2023/03/22 10:01:33;;;;;;;7.50;1.80;;;;;;;12.37;100.00;100576.50;5232460;28;20436;-75
2023/03/22 10:04:21;;;;;;;11.00;2.43;;;;;;;12.29;100.00;100560.41;5233567;28;20060;-75
2023/03/22 10:07:07;;;;;;;11.67;2.57;;;;;;;12.36;100.00;100576.59;5233649;28;20100;-74
2023/03/22 10:09:54;;;;;;;11.43;2.67;;;;;;;12.27;100.00;100568.41;5233750;28;20030;-75
2023/03/22 10:12:29;;;;;;;7.90;1.83;;;;;;;12.32;100.00;100576.78;5232155;28;20045;-75
2023/03/22 10:15:19;;;;;;;9.87;2.97;;;;;;;12.25;100.00;100570.34;5231161;28;20370;-75
2023/03/22 10:17:55;;;;;;;8.60;2.17;;;;;;;12.20;100.00;100582.94;5232771;28;20090;-74
2023/03/22 10:20:44;;;;;;;9.83;2.37;;;;;;;12.13;100.00;100581.69;5231681;28;20022;-74
2023/03/22 10:23:28;;;;;;;10.37;2.50;;;;;;;12.29;100.00;100587.53;5233059;28;20420;-74
2023/03/22 10:26:01;;;;;;;13.87;2.67;;;;;;;12.05;100.00;100590.91;5233316;28;20313;-74
2023/03/22 10:28:42;;;;;;;9.97;2.57;;;;;;;12.01;100.00;100592.06;5232856;28;20338;-75
2023/03/22 10:31:17;;;;;;;16.23;2.40;;;;;;;11.91;100.00;100593.66;5230745;28;20116;-74
2023/03/22 10:33:52;;;;;;;12.03;4.10;;;;;;;11.80;100.00;100599.69;5232879;28;20531;-74
2023/03/22 10:36:30;;;;;;;4.33;1.57;;;;;;;11.76;100.00;100606.06;5233441;28;20025;-74
2023/03/22 10:39:32;;;;;;;10.27;2.23;;;;;;;11.70;100.00;100594.19;5248111;28;20466;-73
2023/03/22 10:42:10;;;;;;;8.40;2.10;;;;;;;11.50;100.00;100597.25;5228670;28;20072;-74
2023/03/22 10:44:49;;;;;;;11.47;3.20;;;;;;;11.42;100.00;100583.81;5232214;28;20021;-74
2023/03/22 10:47:43;;;;;;;9.87;3.03;;;;;;;11.60;100.00;100610.59;5230798;28;20528;-74
2023/03/22 10:50:27;;;;;;;13.53;2.60;;;;;;;11.51;100.00;100603.34;5231011;28;20033;-73
2023/03/22 10:53:07;;;;;;;9.97;2.23;;;;;;;11.54;100.00;100600.50;5230596;28;20272;-74
2023/03/22 10:55:40;;;;;;;9.23;2.80;;;;;;;11.44;100.00;100592.44;5233093;28;20029;-74
2023/03/22 10:58:20;;;;;;;11.50;2.80;;;;;;;11.45;100.00;100598.53;5232189;28;20040;-74
2023/03/22 11:00:55;;;;;;;10.37;2.73;;;;;;;11.33;100.00;100606.25;5232674;28;20037;-74
2023/03/22 11:03:30;;;;;;;11.32;2.92;;;;;;;11.32;100.00;100588.84;5230880;28;20034;-74
2023/03/22 11:06:16;;;;;;;11.50;3.17;;;;;;;11.33;100.00;100601.00;5231090;28;20067;-74
2023/03/22 11:09:10;;;;;;;10.63;2.60;;;;;;;11.26;100.00;100599.72;5232600;28;20052;-74
2023/03/22 11:11:54;;;;;;;8.00;2.63;;;;;;;11.28;100.00;100602.25;5230761;28;20045;-74
2023/03/22 11:14:40;;;;;;;12.35;3.42;;;;;;;11.23;100.00;100595.56;5231041;28;20572;-74
2023/03/22 11:17:24;;;;;;;7.57;2.37;;;;;;;11.24;100.00;100599.03;5231501;28;20075;-74
2023/03/22 11:20:00;;;;;;;12.40;3.60;;;;;;;11.27;100.00;100590.94;5232078;28;20121;-74
2023/03/22 11:22:36;;;;;;;9.97;3.17;;;;;;;11.30;100.00;100595.97;5231328;28;20029;-74
2023/03/22 11:25:19;;;;;;;9.57;2.90;;;;;;;11.30;100.00;100588.13;5231466;28;20492;-74
2023/03/22 11:28:06;;;;;;;9.97;2.50;;;;;;;11.42;100.00;100583.81;5231856;28;20533;-75
2023/03/22 11:30:37;;;;;;;11.27;2.83;;;;;;;11.42;100.00;100583.81;5230391;28;20059;-75
2023/03/22 11:33:15;;;;;;;11.00;2.43;;;;;;;11.46;100.00;100589.69;5231036;28;20029;-74
2023/03/22 11:35:56;;;;;;;6.20;2.10;;;;;;;11.39;100.00;100594.53;5232193;28;20108;-75
2023/03/22 11:38:35;;;;;;;14.43;2.83;;;;;;;11.45;100.00;100588.03;5230292;28;20087;-74
2023/03/22 11:41:22;;;;;;;7.37;2.30;;;;;;;11.37;100.00;100570.19;5231643;28;20057;-73
2023/03/22 11:44:01;;;;;;;9.70;2.50;;;;;;;11.56;100.00;100585.50;5231490;28;20535;-74
2023/03/22 11:46:34;;;;;;;6.97;2.23;;;;;;;11.54;100.00;100582.13;5230892;28;20029;-75
2023/03/22 11:49:13;;;;;;;5.90;1.93;;;;;;;11.52;100.00;100580.59;5230569;28;20036;-74
2023/03/22 11:51:45;;;;;;;5.13;2.20;;;;;;;11.56;100.00;100575.00;5231473;28;20034;-75
2023/03/22 11:54:25;;;;;;;8.80;2.33;;;;;;;11.67;100.00;100582.16;5231696;28;20405;-74
2023/03/22 11:57:00;;;;;;;5.90;2.33;;;;;;;11.69;100.00;100574.19;5230768;28;20393;-74